Time;durP1;ratioP1;P1;durP2;ratioP2;P2;SDS_P1;SDS_P2;PMS_P1;PMS_P2;Temp;Humidity;BMP_temperature;BMP_pressure;BME280_temperature;BME280_humidity;BME280_pressure;Samples;Min_cycle;Max_cycle;Signal;HPM_P1;HPM_P2
2023/03/16 00:02:03;;;;;;;3.03;1.10;;;7.30;99.90;;;;;;4996448;28;20029;-74
2023/03/16 00:04:29;;;;;;;0.25;0.25;;;7.30;99.90;;;;;;4995198;28;20026;-74
2023/03/16 00:06:56;;;;;;;1.65;1.50;;;7.30;99.90;;;;;;4996795;28;20022;-74
2023/03/16 00:09:29;;;;;;;1.55;1.42;;;7.30;99.90;;;;;;4996559;28;20023;-73
2023/03/16 00:12:01;;;;;;;1.65;1.30;;;7.30;99.90;;;;;;4996542;28;20066;-66
2023/03/16 00:14:28;;;;;;;2.65;2.35;;;7.30;99.90;;;;;;4996352;28;20128;-66
2023/03/16 00:16:53;;;;;;;0.88;0.85;;;7.20;99.90;;;;;;4996587;28;20045;-67
2023/03/16 00:19:21;;;;;;;1.77;1.67;;;7.30;99.90;;;;;;4996207;28;20467;-67
2023/03/16 00:21:49;;;;;;;0.40;0.40;;;7.30;99.90;;;;;;4996381;28;20057;-67
2023/03/16 00:24:17;;;;;;;0.68;0.30;;;7.30;99.90;;;;;;4996308;28;20046;-67
2023/03/16 00:26:44;;;;;;;1.23;1.10;;;7.20;99.90;;;;;;4995804;28;20037;-67
2023/03/16 00:29:10;;;;;;;5.35;1.02;;;7.20;99.90;;;;;;4996264;28;20408;-67
2023/03/16 00:31:37;;;;;;;1.85;0.63;;;7.30;99.90;;;;;;4995996;28;20030;-67
2023/03/16 00:34:03;;;;;;;4.38;1.50;;;7.40;99.90;;;;;;4996298;28;20032;-67
2023/03/16 00:36:32;;;;;;;0.85;0.85;;;7.40;99.90;;;;;;4994792;28;20121;-67
2023/03/16 00:38:58;;;;;;;1.42;1.33;;;7.30;99.90;;;;;;4994796;28;20034;-67
2023/03/16 00:41:24;;;;;;;1.55;1.17;;;7.40;99.90;;;;;;4995588;28;20018;-70
2023/03/16 00:43:50;;;;;;;0.77;0.75;;;7.40;99.90;;;;;;4994559;28;20076;-71
2023/03/16 00:46:17;;;;;;;2.33;2.00;;;7.40;99.90;;;;;;4994485;28;20046;-74
2023/03/16 00:48:45;;;;;;;1.20;1.13;;;7.30;99.90;;;;;;4995735;28;20042;-75
2023/03/16 00:51:14;;;;;;;0.20;0.20;;;7.30;99.90;;;;;;4995987;28;20022;-75
2023/03/16 00:53:42;;;;;;;0.70;0.70;;;7.20;99.90;;;;;;4994705;28;20041;-75
2023/03/16 00:56:09;;;;;;;2.10;1.25;;;7.30;99.90;;;;;;4994175;28;20025;-74
2023/03/16 00:58:37;;;;;;;4.28;1.88;;;7.20;99.90;;;;;;4995924;28;20037;-75
2023/03/16 01:01:09;;;;;;;1.75;0.82;;;7.30;99.90;;;;;;4995581;28;20018;-75
2023/03/16 01:03:35;;;;;;;2.47;1.52;;;7.20;99.90;;;;;;4995857;28;20430;-75
2023/03/16 01:06:09;;;;;;;0.60;0.60;;;7.30;99.90;;;;;;4995506;28;20033;-75
2023/03/16 01:08:36;;;;;;;1.60;1.27;;;7.30;99.90;;;;;;4995728;28;20061;-74
2023/03/16 01:11:10;;;;;;;0.73;0.73;;;7.30;99.90;;;;;;4995137;28;20025;-75
2023/03/16 01:13:37;;;;;;;1.15;1.05;;;7.20;99.90;;;;;;4994448;28;20031;-74
2023/03/16 01:16:03;;;;;;;0.57;0.57;;;7.20;99.90;;;;;;4995344;28;20065;-75
2023/03/16 01:18:33;;;;;;;0.65;0.65;;;7.30;99.90;;;;;;4995579;28;20443;-69
2023/03/16 01:21:03;;;;;;;0.70;0.70;;;7.20;99.90;;;;;;4994021;28;20105;-70
2023/03/16 01:23:32;;;;;;;0.77;0.50;;;7.40;99.90;;;;;;4993881;28;20041;-75
2023/03/16 01:25:58;;;;;;;4.32;1.42;;;7.40;99.90;;;;;;4988864;28;20474;-74
2023/03/16 01:28:27;;;;;;;0.10;0.10;;;7.30;99.90;;;;;;4995197;28;20505;-73
2023/03/16 01:30:56;;;;;;;1.33;1.23;;;7.30;99.90;;;;;;4994090;28;20022;-74
2023/03/16 01:33:24;;;;;;;1.10;0.38;;;7.40;99.90;;;;;;4977628;28;20061;-74
2023/03/16 01:35:55;;;;;;;1.40;1.13;;;7.40;99.90;;;;;;4993977;28;20023;-71
2023/03/16 01:38:21;;;;;;;8.45;2.42;;;7.30;99.90;;;;;;4993349;28;20026;-73
2023/03/16 01:40:52;;;;;;;1.67;0.95;;;7.10;99.90;;;;;;4995028;28;20084;-69
2023/03/16 01:43:21;;;;;;;2.03;0.90;;;7.30;99.90;;;;;;4995312;28;20066;-75
2023/03/16 01:46:04;;;;;;;0.50;0.50;;;7.30;99.90;;;;;;4993400;28;20023;-74
2023/03/16 01:48:58;;;;;;;1.65;0.20;;;7.20;99.90;;;;;;4993408;28;20042;-74
2023/03/16 01:51:44;;;;;;;;;;;7.20;99.90;;;;;;4964500;28;20058;-74
2023/03/16 01:54:21;;;;;;;1.40;0.60;;;7.30;99.90;;;;;;5007486;28;20453;-75
2023/03/16 01:56:47;;;;;;;0.10;0.10;;;7.30;99.90;;;;;;4994631;28;20052;-71
2023/03/16 01:59:17;;;;;;;0.38;0.38;;;7.30;99.90;;;;;;4993467;28;20023;-75
2023/03/16 02:01:45;;;;;;;0.80;0.77;;;7.30;99.90;;;;;;4993372;28;20059;-72
2023/03/16 02:04:38;;;;;;;0.98;0.93;;;7.40;99.90;;;;;;4992298;28;20031;-75
2023/03/16 02:07:07;;;;;;;3.08;1.55;;;7.40;99.90;;;;;;4944880;28;20504;-74
2023/03/16 02:09:37;;;;;;;2.22;1.38;;;7.30;99.90;;;;;;4972381;28;20086;-73
2023/03/16 02:12:04;;;;;;;0.57;0.45;;;7.30;99.90;;;;;;4973675;28;20058;-74
2023/03/16 02:14:33;;;;;;;0.75;0.75;;;7.40;99.90;;;;;;4973808;28;20031;-74
2023/03/16 02:16:59;;;;;;;0.65;0.65;;;7.30;99.90;;;;;;4989704;28;20341;-69
2023/03/16 02:19:41;;;;;;;1.75;1.10;;;7.40;99.90;;;;;;4975303;28;20078;-71
2023/03/16 02:22:09;;;;;;;4.93;1.17;;;7.50;99.90;;;;;;4992769;28;20027;-73
2023/03/16 02:24:37;;;;;;;0.20;0.20;;;7.40;99.90;;;;;;4994187;28;20042;-74
2023/03/16 02:27:09;;;;;;;0.65;0.65;;;7.40;99.90;;;;;;4986478;28;20089;-69
2023/03/16 02:30:07;;;;;;;0.52;0.47;;;7.30;99.90;;;;;;4972671;28;20027;-75
2023/03/16 02:32:42;;;;;;;0.98;0.80;;;7.30;99.90;;;;;;4973114;28;20107;-75
2023/03/16 02:35:09;;;;;;;6.30;1.17;;;7.20;99.90;;;;;;4989517;28;20407;-74
2023/03/16 02:37:35;;;;;;;7.22;2.13;;;7.30;99.90;;;;;;4990851;28;20015;-73
2023/03/16 02:40:22;;;;;;;15.13;1.45;;;7.30;99.90;;;;;;4992834;28;20418;-73
2023/03/16 02:43:09;;;;;;;0.20;0.20;;;7.20;99.90;;;;;;4992314;28;20398;-73
2023/03/16 02:45:46;;;;;;;1.98;0.63;;;7.30;99.90;;;;;;4992667;28;20030;-73
2023/03/16 02:48:18;;;;;;;0.65;0.65;;;7.30;99.90;;;;;;4992379;28;20482;-73
2023/03/16 02:50:50;;;;;;;1.75;1.05;;;7.10;99.90;;;;;;4993640;28;20430;-68
2023/03/16 02:53:16;;;;;;;0.60;0.60;;;7.10;99.90;;;;;;4992449;28;20053;-68
2023/03/16 02:55:43;;;;;;;10.57;2.17;;;7.30;99.90;;;;;;4992551;28;20030;-68
2023/03/16 02:58:10;;;;;;;0.17;0.17;;;7.10;99.90;;;;;;4992379;28;20069;-68
2023/03/16 03:00:37;;;;;;;0.45;0.45;;;7.10;99.90;;;;;;4992540;28;20023;-68
2023/03/16 03:03:04;;;;;;;1.38;0.90;;;7.10;99.90;;;;;;4991836;28;20368;-69
2023/03/16 03:05:31;;;;;;;4.15;1.27;;;7.10;99.90;;;;;;4992161;28;20041;-69
2023/03/16 03:07:57;;;;;;;1.90;0.82;;;7.10;99.90;;;;;;4992253;28;20027;-68
2023/03/16 03:10:23;;;;;;;0.22;0.22;;;7.20;99.90;;;;;;4992234;28;20113;-69
2023/03/16 03:12:48;;;;;;;6.53;0.80;;;7.20;99.90;;;;;;4993459;28;20101;-69
2023/03/16 03:15:17;;;;;;;3.45;0.82;;;7.20;99.90;;;;;;4992192;28;20066;-68
2023/03/16 03:17:55;;;;;;;1.05;0.82;;;7.00;99.90;;;;;;4991975;28;20482;-68
2023/03/16 03:20:20;;;;;;;2.00;0.95;;;7.00;99.90;;;;;;4993103;28;20037;-69
2023/03/16 03:22:48;;;;;;;3.95;0.52;;;7.00;99.90;;;;;;4992101;28;20026;-69
2023/03/16 03:25:16;;;;;;;0.55;0.50;;;6.90;99.90;;;;;;4993315;28;20112;-70
2023/03/16 03:27:43;;;;;;;2.08;0.95;;;7.00;99.90;;;;;;4992150;28;20022;-68
2023/03/16 03:30:15;;;;;;;0.85;0.63;;;7.00;99.90;;;;;;4991945;28;20117;-69
2023/03/16 03:32:41;;;;;;;0.60;0.50;;;7.00;99.90;;;;;;4991939;28;20034;-69
2023/03/16 03:35:07;;;;;;;6.10;0.60;;;7.10;99.90;;;;;;4991802;28;20026;-68
2023/03/16 03:37:33;;;;;;;0.80;0.80;;;7.10;99.90;;;;;;4971887;28;20078;-69
2023/03/16 03:39:59;;;;;;;1.38;0.22;;;7.00;99.90;;;;;;4983357;28;20030;-69
2023/03/16 03:42:25;;;;;;;0.43;0.43;;;7.00;99.90;;;;;;4992925;28;20109;-69
2023/03/16 03:44:51;;;;;;;0.22;0.22;;;7.00;99.90;;;;;;4975560;28;20058;-73
2023/03/16 03:47:19;;;;;;;0.65;0.65;;;6.90;99.90;;;;;;4991652;28;20084;-74
2023/03/16 03:49:45;;;;;;;12.77;0.95;;;7.00;99.90;;;;;;4992896;28;20073;-74
2023/03/16 03:52:11;;;;;;;0.13;0.13;;;6.90;99.90;;;;;;4991937;28;20038;-74
2023/03/16 03:54:37;;;;;;;0.57;0.40;;;6.90;99.90;;;;;;4991742;28;20049;-74
2023/03/16 03:57:11;;;;;;;0.30;0.20;;;6.80;99.90;;;;;;4991843;28;20019;-73
2023/03/16 03:59:42;;;;;;;2.05;1.42;;;6.80;99.90;;;;;;4992984;28;20037;-73
2023/03/16 04:02:12;;;;;;;1.33;0.57;;;6.80;99.90;;;;;;4993212;28;20461;-73
2023/03/16 04:04:43;;;;;;;1.42;1.20;;;6.70;99.90;;;;;;4991209;28;20030;-74
2023/03/16 04:07:11;;;;;;;0.20;0.20;;;6.80;99.90;;;;;;4991858;28;20514;-74
2023/03/16 04:09:38;;;;;;;0.85;0.63;;;6.80;99.90;;;;;;4991565;28;20034;-74
2023/03/16 04:12:05;;;;;;;0.73;0.43;;;6.80;99.90;;;;;;4991641;28;20060;-71
2023/03/16 04:14:31;;;;;;;1.08;0.57;;;6.70;99.90;;;;;;4991720;28;20381;-74
2023/03/16 04:16:59;;;;;;;1.98;1.33;;;6.70;99.90;;;;;;4991676;28;20037;-74
2023/03/16 04:19:25;;;;;;;1.33;1.00;;;6.70;99.90;;;;;;4991301;28;20023;-73
2023/03/16 04:21:53;;;;;;;6.90;1.52;;;6.70;99.90;;;;;;4991583;28;20105;-72
2023/03/16 04:24:21;;;;;;;10.13;0.68;;;6.70;99.90;;;;;;4991587;28;20193;-75
2023/03/16 04:26:47;;;;;;;0.20;0.20;;;6.70;99.90;;;;;;4975135;28;20022;-71
2023/03/16 04:29:16;;;;;;;0.10;0.10;;;6.80;99.90;;;;;;4992337;28;20156;-72
2023/03/16 04:31:43;;;;;;;5.72;1.05;;;6.80;99.90;;;;;;4994906;28;20105;-75
2023/03/16 04:34:10;;;;;;;1.30;0.85;;;6.70;99.90;;;;;;4995997;28;20490;-73
2023/03/16 04:36:37;;;;;;;2.33;1.15;;;6.70;99.90;;;;;;4996574;28;20033;-73
2023/03/16 04:39:05;;;;;;;1.30;1.10;;;6.70;99.90;;;;;;4996089;28;20112;-75
2023/03/16 04:41:31;;;;;;;0.22;0.22;;;6.80;99.90;;;;;;4978826;28;20478;-74
2023/03/16 04:44:04;;;;;;;1.60;1.50;;;6.70;99.90;;;;;;4994717;28;20035;-73
2023/03/16 04:46:30;;;;;;;1.02;0.57;;;6.70;99.90;;;;;;4994637;28;20106;-75
2023/03/16 04:48:59;;;;;;;0.73;0.73;;;6.70;99.90;;;;;;4994695;28;20088;-75
2023/03/16 04:51:26;;;;;;;0.40;0.20;;;6.70;99.90;;;;;;4994782;28;20478;-75
2023/03/16 04:54:04;;;;;;;0.60;0.60;;;6.70;99.90;;;;;;4994688;28;20395;-73
2023/03/16 04:56:34;;;;;;;2.17;0.38;;;6.60;99.90;;;;;;4996101;28;20034;-74
2023/03/16 04:59:04;;;;;;;0.80;0.63;;;6.60;99.90;;;;;;4994636;28;20022;-71
2023/03/16 05:01:40;;;;;;;0.38;0.35;;;6.60;99.90;;;;;;4994305;28;20442;-72
2023/03/16 05:04:06;;;;;;;0.77;0.75;;;6.70;99.90;;;;;;4995719;28;20517;-73
2023/03/16 05:06:35;;;;;;;4.93;1.17;;;6.70;99.90;;;;;;4980831;28;20023;-74
2023/03/16 05:09:04;;;;;;;0.30;0.30;;;6.60;99.90;;;;;;4994440;28;20026;-74
2023/03/16 05:11:34;;;;;;;1.65;0.63;;;6.60;99.90;;;;;;4994020;28;20077;-75
2023/03/16 05:14:03;;;;;;;3.67;1.38;;;6.50;99.90;;;;;;4994391;28;20125;-73
2023/03/16 05:16:31;;;;;;;3.08;1.45;;;6.60;99.90;;;;;;4993607;28;20029;-72
2023/03/16 05:18:58;;;;;;;1.10;1.10;;;6.50;99.90;;;;;;4994317;28;20038;-74
2023/03/16 05:21:29;;;;;;;0.50;0.50;;;6.60;99.90;;;;;;4994050;28;20057;-74
2023/03/16 05:24:04;;;;;;;1.35;1.08;;;6.50;99.90;;;;;;4994154;28;20398;-72
2023/03/16 05:26:30;;;;;;;0.75;0.75;;;6.50;99.90;;;;;;4995579;28;20375;-69
2023/03/16 05:28:57;;;;;;;0.45;0.45;;;6.50;99.90;;;;;;4994234;28;20090;-68
2023/03/16 05:31:25;;;;;;;5.00;2.45;;;6.50;99.90;;;;;;4993508;28;20117;-68
2023/03/16 05:33:53;;;;;;;0.43;0.43;;;6.70;99.90;;;;;;4993889;28;20070;-68
2023/03/16 05:36:20;;;;;;;7.97;0.80;;;6.60;99.90;;;;;;4993826;28;20092;-69
2023/03/16 05:38:49;;;;;;;0.25;0.25;;;6.60;99.90;;;;;;4993754;28;20026;-68
2023/03/16 05:41:41;;;;;;;0.10;0.10;;;6.60;99.90;;;;;;4991741;28;20042;-69
2023/03/16 05:44:16;;;;;;;1.48;0.28;;;6.60;99.90;;;;;;4993470;28;20513;-69
2023/03/16 05:46:57;;;;;;;2.63;1.05;;;6.70;99.90;;;;;;4993505;28;20037;-68
2023/03/16 05:49:23;;;;;;;4.85;2.65;;;6.80;99.90;;;;;;4993573;28;20387;-68
2023/03/16 05:51:49;;;;;;;0.30;0.30;;;6.80;99.90;;;;;;4993494;28;20441;-69
2023/03/16 05:54:15;;;;;;;2.08;0.93;;;6.80;99.90;;;;;;4993300;28;20699;-68
2023/03/16 05:56:44;;;;;;;0.77;0.70;;;6.90;99.90;;;;;;4993559;28;20026;-68
2023/03/16 05:59:10;;;;;;;3.13;0.93;;;6.90;99.90;;;;;;4988600;28;20023;-68
2023/03/16 06:01:36;;;;;;;10.07;1.13;;;6.80;99.90;;;;;;4993114;28;20363;-68
2023/03/16 06:04:04;;;;;;;2.70;1.23;;;6.80;99.90;;;;;;4992736;28;20053;-68
2023/03/16 06:06:33;;;;;;;0.10;0.10;;;6.80;99.90;;;;;;4993193;28;20022;-68
2023/03/16 06:09:06;;;;;;;5.22;0.90;;;6.80;99.90;;;;;;4993060;28;20124;-68
2023/03/16 06:11:32;;;;;;;0.20;0.20;;;6.70;99.90;;;;;;4993250;28;20022;-69
2023/03/16 06:13:59;;;;;;;3.38;2.25;;;6.80;99.90;;;;;;4993777;28;20034;-68
2023/03/16 06:16:25;;;;;;;3.47;0.75;;;6.80;99.90;;;;;;4993025;28;20041;-69
2023/03/16 06:18:51;;;;;;;0.95;0.70;;;6.90;99.90;;;;;;4993131;28;20022;-69
2023/03/16 06:21:17;;;;;;;0.45;0.43;;;6.90;99.90;;;;;;4992888;28;20413;-70
2023/03/16 06:23:45;;;;;;;0.38;0.32;;;6.90;99.90;;;;;;4992999;28;20482;-69
2023/03/16 06:26:11;;;;;;;1.45;0.90;;;7.00;99.90;;;;;;4992912;28;20164;-74
2023/03/16 06:28:40;;;;;;;8.07;0.82;;;7.00;99.90;;;;;;4992587;28;20022;-69
2023/03/16 06:31:06;;;;;;;1.75;0.85;;;7.10;99.90;;;;;;4994289;28;20375;-70
2023/03/16 06:33:34;;;;;;;1.65;1.55;;;7.10;99.90;;;;;;4992588;28;20026;-71
2023/03/16 06:36:00;;;;;;;3.05;0.80;;;7.10;99.90;;;;;;4992717;28;20497;-70
2023/03/16 06:38:36;;;;;;;3.63;0.98;;;7.10;99.90;;;;;;4981366;28;20037;-71
2023/03/16 06:41:07;;;;;;;0.40;0.40;;;7.20;99.90;;;;;;4966420;28;20050;-71
2023/03/16 06:43:34;;;;;;;5.35;1.27;;;7.20;99.90;;;;;;4992312;28;20038;-74
2023/03/16 06:46:01;;;;;;;0.32;0.28;;;7.20;99.90;;;;;;4993606;28;20041;-71
2023/03/16 06:48:28;;;;;;;1.38;0.70;;;7.20;99.90;;;;;;4992428;28;20073;-74
2023/03/16 06:50:54;;;;;;;1.08;1.00;;;7.20;99.90;;;;;;4992432;28;20026;-73
2023/03/16 06:53:23;;;;;;;0.10;0.10;;;7.20;99.90;;;;;;4992282;28;20478;-70
2023/03/16 06:55:51;;;;;;;0.10;0.10;;;7.30;99.90;;;;;;4992289;28;20033;-72
2023/03/16 06:58:17;;;;;;;1.60;0.60;;;7.30;99.90;;;;;;4991890;28;20034;-75
2023/03/16 07:00:44;;;;;;;0.77;0.25;;;7.30;99.90;;;;;;4992516;28;20054;-71
2023/03/16 07:03:10;;;;;;;4.32;1.17;;;7.40;99.90;;;;;;4993333;28;20066;-70
2023/03/16 07:05:38;;;;;;;2.00;0.68;;;7.30;99.90;;;;;;4979974;28;20117;-69
2023/03/16 07:08:04;;;;;;;3.38;0.70;;;7.30;99.90;;;;;;4959202;28;20145;-74
2023/03/16 07:10:31;;;;;;;0.93;0.85;;;7.30;99.90;;;;;;4972006;28;20395;-71
2023/03/16 07:12:58;;;;;;;1.02;1.00;;;7.20;99.90;;;;;;4986257;28;20031;-74
2023/03/16 07:15:25;;;;;;;0.43;0.22;;;7.20;99.90;;;;;;4964496;28;20027;-74
2023/03/16 07:17:52;;;;;;;1.33;0.73;;;7.30;99.90;;;;;;4968581;28;20117;-70
2023/03/16 07:20:18;;;;;;;4.55;1.45;;;7.30;99.90;;;;;;4971746;28;20559;-71
2023/03/16 07:22:44;;;;;;;3.20;0.75;;;7.50;99.90;;;;;;4971809;28;20109;-73
2023/03/16 07:25:12;;;;;;;1.20;0.90;;;7.50;99.90;;;;;;4971876;28;20074;-70
2023/03/16 07:27:44;;;;;;;2.07;0.87;;;7.40;99.90;;;;;;4971718;28;20054;-73
2023/03/16 07:30:13;;;;;;;0.30;0.30;;;7.50;99.90;;;;;;4971673;28;20034;-70
2023/03/16 07:32:41;;;;;;;0.30;0.30;;;7.60;99.90;;;;;;4971475;28;20023;-70
2023/03/16 07:35:09;;;;;;;0.52;0.20;;;7.60;99.90;;;;;;4986545;28;20027;-71
2023/03/16 07:37:36;;;;;;;1.60;0.98;;;7.60;99.90;;;;;;4986790;28;20061;-72
2023/03/16 07:40:06;;;;;;;1.45;0.88;;;7.70;99.90;;;;;;4989697;28;20030;-70
2023/03/16 07:42:34;;;;;;;0.75;0.73;;;7.80;99.90;;;;;;4977350;28;20054;-71
2023/03/16 07:45:25;;;;;;;1.23;0.93;;;7.90;99.90;;;;;;4951301;28;20480;-71
2023/03/16 07:47:51;;;;;;;0.75;0.60;;;7.90;99.90;;;;;;4971104;28;20448;-69
2023/03/16 07:50:32;;;;;;;0.63;0.52;;;8.00;99.90;;;;;;4967435;28;20042;-70
2023/03/16 07:52:58;;;;;;;0.17;0.17;;;8.00;99.90;;;;;;4986808;28;20031;-73
2023/03/16 07:55:25;;;;;;;0.57;0.17;;;8.10;99.90;;;;;;4975437;28;20034;-70
2023/03/16 07:57:51;;;;;;;0.50;0.40;;;8.40;99.90;;;;;;4971602;28;20483;-71
2023/03/16 08:00:25;;;;;;;0.28;0.28;;;8.40;99.90;;;;;;4983723;28;20045;-70
2023/03/16 08:02:52;;;;;;;0.20;0.20;;;8.50;99.90;;;;;;4985344;28;20037;-69
2023/03/16 08:05:18;;;;;;;1.02;1.00;;;8.50;99.90;;;;;;4974474;28;20066;-72
2023/03/16 08:07:48;;;;;;;0.30;0.22;;;8.60;99.90;;;;;;4974845;28;20444;-71
2023/03/16 08:10:20;;;;;;;3.60;0.80;;;8.60;99.90;;;;;;4974650;28;20435;-70
2023/03/16 08:13:03;;;;;;;0.68;0.68;;;8.50;99.90;;;;;;4972510;28;20117;-69
2023/03/16 08:15:32;;;;;;;1.75;0.40;;;8.60;99.90;;;;;;4975193;28;20034;-68
2023/03/16 08:18:06;;;;;;;11.20;0.63;;;8.60;99.90;;;;;;4974895;28;20109;-69
2023/03/16 08:20:33;;;;;;;0.17;0.17;;;8.60;99.90;;;;;;4974991;28;20030;-69
2023/03/16 08:22:59;;;;;;;0.10;0.10;;;8.70;99.90;;;;;;4975058;28;20042;-68
2023/03/16 08:25:28;;;;;;;0.10;0.10;;;8.80;99.90;;;;;;4974635;28;20495;-68
2023/03/16 08:28:03;;;;;;;0.32;0.32;;;9.00;99.90;;;;;;4975106;28;20023;-68
2023/03/16 08:30:29;;;;;;;0.65;0.28;;;9.10;99.90;;;;;;4974636;28;20027;-68
2023/03/16 08:33:16;;;;;;;2.30;1.00;;;9.20;99.90;;;;;;4971182;28;20391;-69
2023/03/16 08:35:43;;;;;;;0.32;0.32;;;9.30;99.90;;;;;;4978042;28;20033;-68
2023/03/16 08:38:10;;;;;;;0.63;0.63;;;9.60;99.90;;;;;;4990482;28;20058;-69
2023/03/16 08:40:36;;;;;;;1.45;0.60;;;9.70;99.90;;;;;;4991259;28;20022;-69
2023/03/16 08:43:03;;;;;;;0.10;0.10;;;9.80;99.90;;;;;;4978077;28;20101;-68
2023/03/16 08:45:29;;;;;;;1.15;0.52;;;9.90;99.90;;;;;;4980254;28;20070;-68
2023/03/16 08:47:54;;;;;;;1.10;0.75;;;10.00;99.90;;;;;;4988637;28;20108;-70
2023/03/16 08:50:21;;;;;;;1.90;1.02;;;10.10;99.90;;;;;;4990335;28;20080;-69
2023/03/16 08:52:50;;;;;;;1.45;0.63;;;10.10;99.90;;;;;;4994641;28;20030;-69
2023/03/16 08:55:16;;;;;;;0.93;0.40;;;10.30;99.90;;;;;;4990090;28;20033;-69
2023/03/16 08:57:43;;;;;;;10.32;0.60;;;10.40;99.90;;;;;;4995689;28;20030;-68
2023/03/16 09:00:13;;;;;;;2.65;0.63;;;10.50;99.90;;;;;;4989827;28;20026;-70
2023/03/16 09:02:42;;;;;;;1.67;0.75;;;10.50;99.90;;;;;;4969559;28;20033;-69
2023/03/16 09:05:13;;;;;;;0.45;0.45;;;10.60;99.90;;;;;;4972943;28;20030;-68
2023/03/16 09:07:39;;;;;;;2.47;1.05;;;10.60;99.90;;;;;;4972085;28;20063;-69
2023/03/16 09:10:12;;;;;;;1.30;0.32;;;10.40;99.90;;;;;;4975516;28;20069;-68
2023/03/16 09:12:39;;;;;;;0.52;0.35;;;10.40;99.90;;;;;;4975126;28;20027;-69
2023/03/16 09:15:06;;;;;;;0.65;0.50;;;10.40;99.90;;;;;;4975360;28;20143;-69
2023/03/16 09:17:32;;;;;;;0.73;0.73;;;10.40;99.90;;;;;;4985396;28;20031;-68
2023/03/16 09:19:57;;;;;;;2.88;0.85;;;10.50;99.90;;;;;;4974968;28;20101;-68
2023/03/16 09:22:24;;;;;;;1.08;0.57;;;10.50;99.90;;;;;;4974491;28;20030;-68
2023/03/16 09:24:50;;;;;;;6.18;0.90;;;10.60;99.90;;;;;;4974740;28;20031;-69
2023/03/16 09:27:16;;;;;;;4.65;0.70;;;10.50;99.90;;;;;;4974990;28;20081;-69
2023/03/16 09:29:42;;;;;;;0.30;0.28;;;10.50;99.90;;;;;;4974930;28;20019;-70
2023/03/16 09:32:08;;;;;;;1.65;0.60;;;10.50;99.90;;;;;;4973416;28;20498;-69
2023/03/16 09:34:34;;;;;;;1.10;0.40;;;10.80;99.90;;;;;;4974896;28;20023;-70
2023/03/16 09:37:01;;;;;;;0.32;0.32;;;10.70;99.90;;;;;;4974998;28;20045;-69
2023/03/16 09:39:27;;;;;;;1.33;0.35;;;10.70;99.90;;;;;;4989131;28;20026;-76
2023/03/16 09:42:12;;;;;;;2.45;1.02;;;10.80;99.90;;;;;;4979746;28;20030;-76
2023/03/16 09:44:56;;;;;;;9.23;0.70;;;10.70;99.90;;;;;;4976302;28;20038;-74
2023/03/16 09:47:27;;;;;;;0.35;0.35;;;10.80;99.90;;;;;;4987963;28;20105;-75
2023/03/16 09:49:57;;;;;;;1.10;0.68;;;10.80;99.90;;;;;;4986812;28;20117;-75
2023/03/16 09:52:47;;;;;;;15.77;0.80;;;10.90;99.90;;;;;;4977107;28;20034;-75
2023/03/16 09:55:34;;;;;;;1.40;0.82;;;11.00;99.70;;;;;;4983523;28;20084;-73
2023/03/16 09:58:03;;;;;;;0.10;0.10;;;11.20;98.90;;;;;;4977244;28;20117;-75
2023/03/16 10:01:08;;;;;;;4.63;0.88;;;11.40;99.20;;;;;;4985443;28;20487;-75
2023/03/16 10:04:02;;;;;;;0.20;0.20;;;11.50;99.20;;;;;;4970621;28;20129;-75
2023/03/16 10:06:30;;;;;;;1.35;0.50;;;11.90;98.90;;;;;;4957256;28;20049;-75
2023/03/16 10:08:56;;;;;;;0.45;0.20;;;11.80;98.40;;;;;;4977231;28;20030;-74
2023/03/16 10:11:27;;;;;;;1.80;0.70;;;12.00;98.60;;;;;;4974141;28;20026;-75
2023/03/16 10:14:06;;;;;;;6.50;1.20;;;12.20;97.70;;;;;;4974222;28;20033;-75
2023/03/16 10:16:39;;;;;;;1.25;0.52;;;12.30;97.00;;;;;;4973853;28;20114;-74
2023/03/16 10:19:31;;;;;;;0.15;0.15;;;12.50;97.40;;;;;;4973999;28;20113;-75
2023/03/16 10:22:01;;;;;;;1.00;0.90;;;12.30;96.60;;;;;;4973800;28;20486;-73
2023/03/16 10:24:41;;;;;;;0.13;0.13;;;12.40;95.80;;;;;;4973940;28;20086;-75
2023/03/16 10:27:17;;;;;;;0.45;0.43;;;12.70;96.30;;;;;;4971746;28;20122;-71
2023/03/16 10:29:43;;;;;;;1.23;0.93;;;13.30;95.90;;;;;;4967393;28;20475;-75
2023/03/16 10:32:18;;;;;;;5.15;1.42;;;13.30;94.60;;;;;;4973636;28;20154;-73
2023/03/16 10:34:53;;;;;;;0.43;0.43;;;13.20;94.40;;;;;;4973474;28;20118;-74
2023/03/16 10:37:20;;;;;;;2.92;0.93;;;13.00;94.90;;;;;;4977177;28;20475;-75
2023/03/16 10:39:48;;;;;;;0.20;0.20;;;13.00;94.50;;;;;;4986868;28;20471;-75
2023/03/16 10:42:17;;;;;;;0.15;0.15;;;13.00;95.20;;;;;;4979824;28;20090;-76
2023/03/16 10:44:44;;;;;;;0.30;0.30;;;13.30;95.10;;;;;;4986268;28;20045;-75
2023/03/16 10:47:23;;;;;;;0.88;0.32;;;13.00;94.10;;;;;;4987084;28;20121;-72
2023/03/16 10:49:50;;;;;;;0.52;0.50;;;12.80;94.40;;;;;;4986214;28;20109;-75
2023/03/16 10:52:38;;;;;;;0.60;0.30;;;13.00;94.80;;;;;;4976681;28;20035;-69
2023/03/16 10:55:17;;;;;;;2.40;0.60;;;13.10;95.10;;;;;;4983807;28;20022;-75
2023/03/16 10:57:52;;;;;;;1.25;0.70;;;13.00;94.30;;;;;;4986870;28;20029;-73
2023/03/16 11:00:27;;;;;;;1.02;0.47;;;13.10;94.30;;;;;;4992441;28;20121;-76
2023/03/16 11:02:55;;;;;;;5.15;0.95;;;13.20;94.50;;;;;;4991383;28;20045;-70
2023/03/16 11:05:29;;;;;;;0.38;0.38;;;13.40;95.00;;;;;;4980496;28;20037;-70
2023/03/16 11:07:59;;;;;;;0.65;0.65;;;13.30;94.40;;;;;;4973235;28;20518;-75
2023/03/16 11:10:30;;;;;;;3.92;0.57;;;13.50;94.40;;;;;;4971161;28;20049;-76
2023/03/16 11:13:21;;;;;;;5.73;1.30;;;13.40;94.70;;;;;;4973837;28;20042;-70
2023/03/16 11:15:51;;;;;;;0.90;0.40;;;13.60;94.20;;;;;;4973884;28;20039;-71
2023/03/16 11:18:37;;;;;;;1.13;0.30;;;13.60;94.60;;;;;;4973430;28;20027;-76
2023/03/16 11:21:21;;;;;;;1.75;0.20;;;13.80;94.50;;;;;;4973797;28;20062;-70
2023/03/16 11:23:52;;;;;;;1.83;0.68;;;13.80;93.90;;;;;;4963893;28;20043;-71
2023/03/16 11:26:33;;;;;;;0.38;0.38;;;14.40;93.50;;;;;;4965385;28;20467;-69
2023/03/16 11:29:16;;;;;;;2.38;0.80;;;14.50;93.70;;;;;;4963187;28;20080;-69
2023/03/16 11:31:56;;;;;;;6.55;0.82;;;14.60;92.90;;;;;;4971205;28;20031;-68
2023/03/16 11:34:27;;;;;;;0.55;0.40;;;14.40;92.70;;;;;;4973325;28;20031;-69
2023/03/16 11:36:55;;;;;;;1.23;0.68;;;14.30;92.90;;;;;;4986535;28;20034;-71
2023/03/16 11:39:48;;;;;;;0.77;0.40;;;14.30;93.00;;;;;;4991846;28;20034;-72
2023/03/16 11:42:27;;;;;;;;;;;14.50;93.10;;;;;;4996942;28;20061;-72
2023/03/16 11:45:12;;;;;;;3.92;0.98;;;14.30;92.90;;;;;;4997026;28;19972;-72
2023/03/16 11:47:50;;;;;;;2.08;0.70;;;14.30;92.90;;;;;;4996769;28;20026;-72
2023/03/16 11:50:46;;;;;;;1.25;0.65;;;14.10;92.50;;;;;;4995880;28;20038;-72
2023/03/16 11:53:21;;;;;;;3.53;0.55;;;14.20;92.20;;;;;;4973440;28;20117;-71
2023/03/16 11:56:14;;;;;;;7.15;0.47;;;14.80;92.00;;;;;;4996334;28;20114;-72
2023/03/16 11:58:42;;;;;;;2.63;0.75;;;15.20;91.70;;;;;;4996878;28;20022;-72
2023/03/16 12:01:20;;;;;;;1.35;0.85;;;15.50;91.80;;;;;;4996698;28;20030;-71
2023/03/16 12:04:00;;;;;;;0.80;0.52;;;15.80;91.50;;;;;;4996611;28;20049;-72
2023/03/16 12:06:58;;;;;;;0.28;0.28;;;16.40;91.00;;;;;;4997000;28;20066;-72
2023/03/16 12:09:56;;;;;;;0.10;0.10;;;16.00;91.00;;;;;;4996916;28;20030;-72
2023/03/16 12:12:41;;;;;;;2.78;0.68;;;16.10;90.60;;;;;;4996855;28;20037;-72
2023/03/16 12:15:32;;;;;;;0.98;0.60;;;16.00;90.30;;;;;;4966125;28;20034;-72
2023/03/16 12:18:14;;;;;;;0.93;0.50;;;16.10;90.40;;;;;;4992010;28;20125;-72
2023/03/16 12:21:00;;;;;;;;;;;16.40;89.10;;;;;;4996681;28;20038;-72
2023/03/16 12:23:35;;;;;;;0.32;0.20;;;16.60;90.00;;;;;;4996230;28;20279;-72
2023/03/16 12:26:02;;;;;;;2.67;0.32;;;16.40;89.10;;;;;;4996410;28;20042;-71
2023/03/16 12:28:30;;;;;;;0.90;0.57;;;15.90;88.30;;;;;;4996495;28;20069;-72
2023/03/16 12:31:18;;;;;;;1.17;0.60;;;15.80;88.20;;;;;;4995930;28;20524;-72
2023/03/16 12:34:07;;;;;;;0.65;0.40;;;15.60;88.30;;;;;;4996204;28;20452;-72
2023/03/16 12:36:47;;;;;;;0.70;0.25;;;16.00;88.30;;;;;;4995015;28;20022;-72
2023/03/16 12:39:23;;;;;;;8.27;0.70;;;16.20;86.50;;;;;;4996278;28;20041;-73
2023/03/16 12:42:07;;;;;;;0.90;0.50;;;16.20;87.70;;;;;;4995881;28;20018;-71
2023/03/16 12:44:45;;;;;;;4.38;1.15;;;15.60;88.10;;;;;;4946390;28;20531;-72
2023/03/16 12:47:36;;;;;;;0.55;0.40;;;15.80;88.30;;;;;;4989944;28;20034;-72
2023/03/16 12:50:05;;;;;;;5.65;0.40;;;16.00;88.20;;;;;;4995495;28;20045;-72
2023/03/16 12:52:40;;;;;;;1.92;0.70;;;16.30;87.90;;;;;;4995703;28;20498;-72
2023/03/16 12:55:16;;;;;;;0.20;0.20;;;16.60;87.60;;;;;;4995828;28;20041;-72
2023/03/16 12:57:44;;;;;;;1.13;0.10;;;16.80;88.50;;;;;;4995682;28;20544;-71
2023/03/16 13:00:11;;;;;;;0.38;0.30;;;17.00;87.00;;;;;;4995820;28;20443;-72
2023/03/16 13:02:48;;;;;;;3.70;1.50;;;16.60;87.90;;;;;;4994354;28;20125;-72
2023/03/16 13:05:18;;;;;;;5.05;0.88;;;17.10;86.40;;;;;;4995854;28;20069;-72
2023/03/16 13:08:02;;;;;;;0.47;0.22;;;16.70;86.20;;;;;;4994351;28;20038;-71
2023/03/16 13:10:28;;;;;;;0.68;0.60;;;16.90;86.40;;;;;;4994307;28;20042;-72
2023/03/16 13:12:54;;;;;;;2.00;0.73;;;16.60;85.90;;;;;;4995466;28;20034;-71
2023/03/16 13:15:21;;;;;;;0.20;0.20;;;17.30;85.60;;;;;;4995841;28;20046;-72
2023/03/16 13:18:03;;;;;;;1.08;0.50;;;17.20;86.90;;;;;;4995304;28;20030;-72